Time;durP1;ratioP1;P1;durP2;ratioP2;P2;SDS_P1;SDS_P2;PMS_P1;PMS_P2;Temp;Humidity;BMP_temperature;BMP_pressure;BME280_temperature;BME280_humidity;BME280_pressure;Samples;Min_cycle;Max_cycle;Signal;HPM_P1;HPM_P2
2023/06/08 00:00:23;;;;;;;15.38;5.88;;;;;;;17.30;77.93;101715.41;5015523;28;20046;-62
2023/06/08 00:02:53;;;;;;;16.77;6.63;;;;;;;17.27;77.97;101715.94;5015771;28;20052;-62
2023/06/08 00:05:23;;;;;;;16.70;6.20;;;;;;;17.17;78.75;101722.38;5013830;28;20077;-63
2023/06/08 00:07:51;;;;;;;15.98;6.18;;;;;;;17.16;79.21;101715.25;5023685;28;20073;-63
2023/06/08 00:10:18;;;;;;;14.88;6.82;;;;;;;17.24;78.73;101715.44;5014741;28;20136;-64
2023/06/08 00:12:46;;;;;;;12.68;6.05;;;;;;;17.31;78.55;101723.34;5014469;28;20104;-62
2023/06/08 00:15:14;;;;;;;19.27;6.95;;;;;;;17.35;78.44;101724.41;5046063;28;20126;-62
2023/06/08 00:17:44;;;;;;;16.40;6.63;;;;;;;17.30;78.77;101726.41;5058957;28;20037;-62
2023/06/08 00:20:13;;;;;;;20.60;6.43;;;;;;;17.10;79.72;101725.50;5032432;28;20478;-63
2023/06/08 00:22:42;;;;;;;18.45;6.57;;;;;;;17.07;80.53;101722.50;5028336;28;20056;-62
2023/06/08 00:25:10;;;;;;;24.10;7.22;;;;;;;17.05;79.91;101720.03;5049442;28;20456;-64
2023/06/08 00:27:38;;;;;;;18.95;6.90;;;;;;;16.98;81.04;101720.38;5030820;28;20064;-63
2023/06/08 00:30:06;;;;;;;19.60;6.45;;;;;;;16.98;81.01;101723.13;5032134;28;20107;-63
2023/06/08 00:32:35;;;;;;;19.33;6.10;;;;;;;16.97;80.70;101721.47;5033766;28;20057;-62
2023/06/08 00:35:04;;;;;;;19.63;6.55;;;;;;;16.92;81.54;101713.25;5016425;28;20063;-63
2023/06/08 00:37:31;;;;;;;17.30;6.53;;;;;;;16.80;81.72;101712.81;5033032;28;20045;-63
2023/06/08 00:40:00;;;;;;;17.15;6.10;;;;;;;16.69;83.03;101709.31;5032935;28;20543;-63
2023/06/08 00:42:28;;;;;;;17.10;7.07;;;;;;;16.75;82.88;101715.59;5034039;28;20100;-62
2023/06/08 00:44:56;;;;;;;15.95;6.43;;;;;;;16.74;82.56;101714.78;5033902;28;20446;-63
2023/06/08 00:47:25;;;;;;;17.30;6.57;;;;;;;16.78;82.49;101712.25;5031720;28;20077;-63
2023/06/08 00:49:53;;;;;;;18.75;6.35;;;;;;;16.85;82.29;101710.03;5031942;28;20045;-64
2023/06/08 00:52:22;;;;;;;16.10;6.55;;;;;;;16.71;82.98;101701.56;5013834;28;20113;-64
2023/06/08 00:54:54;;;;;;;18.48;6.50;;;;;;;16.64;83.32;101697.50;5045160;28;20503;-65
2023/06/08 00:57:25;;;;;;;20.13;6.60;;;;;;;16.67;82.99;101696.94;5061880;28;20087;-64
2023/06/08 00:59:53;;;;;;;18.88;6.43;;;;;;;16.65;83.74;101693.66;5031394;28;20061;-62
2023/06/08 01:02:22;;;;;;;16.52;6.22;;;;;;;16.71;83.46;101698.00;5016169;28;20092;-63
2023/06/08 01:04:50;;;;;;;15.93;6.65;;;;;;;16.61;83.99;101698.91;5033121;28;20049;-62
2023/06/08 01:08:00;;;;;;;14.65;5.93;;;;;;;16.53;84.29;101686.59;5038914;28;20056;-61
2023/06/08 01:10:39;;;;;;;17.67;6.70;;;;;;;16.49;84.66;101690.19;5031943;28;20478;-64
2023/06/08 01:13:26;;;;;;;15.05;6.65;;;;;;;16.56;84.43;101691.50;5032072;28;20084;-62
2023/06/08 01:16:01;;;;;;;18.48;6.50;;;;;;;16.55;84.46;101692.63;5026794;28;20041;-63
2023/06/08 01:18:38;;;;;;;18.23;6.55;;;;;;;16.54;84.55;101693.72;5013890;28;20053;-61
2023/06/08 01:21:36;;;;;;;16.13;6.35;;;;;;;16.55;84.69;101700.06;5039574;28;20050;-63
2023/06/08 01:24:16;;;;;;;18.25;6.47;;;;;;;16.47;84.31;101704.22;5016316;28;20121;-63
2023/06/08 01:26:49;;;;;;;16.23;6.40;;;;;;;16.47;84.82;101695.16;4997802;28;20041;-61
2023/06/08 01:29:21;;;;;;;16.48;6.68;;;;;;;16.56;84.63;101688.75;5047940;28;20482;-62
2023/06/08 01:31:49;;;;;;;13.98;6.40;;;;;;;16.53;84.25;101697.59;5028490;28;20050;-62
2023/06/08 01:34:18;;;;;;;17.95;6.50;;;;;;;16.47;84.93;101693.22;5013820;28;20136;-62
2023/06/08 01:37:01;;;;;;;16.80;6.85;;;;;;;16.51;84.38;101699.81;5023570;28;20091;-62
2023/06/08 01:39:41;;;;;;;15.25;6.68;;;;;;;16.35;85.35;101698.28;5015180;28;20053;-63
2023/06/08 01:42:10;;;;;;;19.88;7.13;;;;;;;16.16;86.26;101695.34;5017690;28;20116;-61
2023/06/08 01:44:44;;;;;;;16.25;7.05;;;;;;;16.07;86.77;101692.41;5018726;28;20045;-60
2023/06/08 01:47:16;;;;;;;15.52;6.40;;;;;;;16.01;86.78;101690.78;5022820;28;20128;-62
2023/06/08 01:49:45;;;;;;;19.60;7.10;;;;;;;16.02;87.25;101686.94;5016040;28;20101;-62
2023/06/08 01:52:13;;;;;;;18.38;6.60;;;;;;;16.08;87.39;101687.72;4983334;28;20487;-62
2023/06/08 01:54:41;;;;;;;20.58;7.82;;;;;;;16.12;86.07;101681.38;5023228;28;20053;-64
2023/06/08 01:57:08;;;;;;;19.83;7.00;;;;;;;16.14;86.73;101672.84;5015320;28;20061;-62
2023/06/08 01:59:36;;;;;;;20.48;7.15;;;;;;;16.10;85.82;101677.28;5016029;28;20056;-61
2023/06/08 02:02:04;;;;;;;15.40;6.75;;;;;;;15.75;88.31;101677.19;5015842;28;20046;-62
2023/06/08 02:04:32;;;;;;;17.58;6.95;;;;;;;15.76;88.55;101667.81;5019380;28;20084;-62
2023/06/08 02:07:03;;;;;;;22.65;6.88;;;;;;;15.81;88.25;101674.41;5017924;28;20470;-65
2023/06/08 02:09:32;;;;;;;21.23;7.15;;;;;;;15.67;88.78;101672.22;5036191;28;20053;-62
2023/06/08 02:12:08;;;;;;;19.92;7.40;;;;;;;15.65;89.42;101662.63;5035334;28;20566;-63
2023/06/08 02:14:36;;;;;;;18.48;7.00;;;;;;;15.63;89.84;101671.13;5017543;28;20478;-66
2023/06/08 02:17:05;;;;;;;18.20;6.25;;;;;;;15.66;89.19;101667.84;5035626;28;20624;-64
2023/06/08 02:19:34;;;;;;;18.40;6.65;;;;;;;15.69;89.36;101670.03;5047660;28;20049;-63
2023/06/08 02:22:02;;;;;;;16.80;6.85;;;;;;;15.76;88.79;101669.75;5032336;28;20121;-61
2023/06/08 02:24:31;;;;;;;16.90;6.90;;;;;;;15.57;89.34;101669.53;5050767;28;20037;-62
2023/06/08 02:26:59;;;;;;;16.42;7.40;;;;;;;15.59;89.95;101681.06;5043729;28;20064;-61
2023/06/08 02:29:27;;;;;;;18.23;7.65;;;;;;;15.54;89.80;101670.91;5043194;28;20126;-64
2023/06/08 02:31:55;;;;;;;20.13;7.65;;;;;;;15.44;90.33;101670.13;5050609;28;20077;-61
2023/06/08 02:34:24;;;;;;;15.25;6.85;;;;;;;15.42;91.17;101669.59;5048380;28;20446;-62
2023/06/08 02:36:53;;;;;;;18.40;7.32;;;;;;;15.47;90.55;101670.38;5039396;28;20559;-61
2023/06/08 02:39:21;;;;;;;20.60;8.00;;;;;;;15.41;90.58;101665.19;5035435;28;20049;-60
2023/06/08 02:41:49;;;;;;;20.73;7.18;;;;;;;15.35;91.80;101672.63;5035178;28;20046;-62
2023/06/08 02:44:17;;;;;;;19.60;7.57;;;;;;;15.32;91.60;101663.03;5035740;28;20053;-61
2023/06/08 02:46:45;;;;;;;18.38;7.38;;;;;;;15.22;92.14;101668.53;5034111;28;20041;-62
2023/06/08 02:49:13;;;;;;;17.75;7.43;;;;;;;15.32;92.41;101667.69;5034381;28;20041;-62
2023/06/08 02:51:42;;;;;;;18.85;7.85;;;;;;;15.41;90.97;101666.00;5051559;28;20099;-62
2023/06/08 02:54:09;;;;;;;18.17;6.93;;;;;;;15.46;90.81;101670.66;5035277;28;20037;-63
2023/06/08 02:56:37;;;;;;;17.77;7.22;;;;;;;15.51;90.96;101670.63;5034847;28;20061;-64
2023/06/08 02:59:06;;;;;;;22.52;7.68;;;;;;;15.50;90.16;101667.06;5034058;28;20080;-63
2023/06/08 03:01:36;;;;;;;18.50;7.38;;;;;;;15.42;90.66;101661.34;5034229;28;20107;-61
2023/06/08 03:04:12;;;;;;;16.50;7.15;;;;;;;15.29;91.15;101663.56;5017707;28;20041;-62
2023/06/08 03:06:46;;;;;;;18.90;7.75;;;;;;;15.27;92.08;101659.47;5047405;28;20053;-62
2023/06/08 03:09:15;;;;;;;18.60;7.40;;;;;;;15.27;91.32;101660.31;5030092;28;20053;-62
2023/06/08 03:11:50;;;;;;;20.38;7.50;;;;;;;15.19;92.59;101651.81;4998799;28;20406;-61
2023/06/08 03:14:19;;;;;;;15.90;6.85;;;;;;;15.20;91.86;101650.69;5014262;28;20050;-62
2023/06/08 03:16:48;;;;;;;21.20;7.20;;;;;;;15.10;92.55;101649.66;5030671;28;20136;-63
2023/06/08 03:19:16;;;;;;;20.35;7.93;;;;;;;15.06;92.61;101658.72;5047940;28;20045;-63
2023/06/08 03:21:49;;;;;;;22.05;7.88;;;;;;;14.93;93.48;101656.53;5013690;28;20613;-61
2023/06/08 03:24:20;;;;;;;17.00;6.95;;;;;;;15.04;93.14;101656.22;4999521;28;20052;-61
2023/06/08 03:26:52;;;;;;;18.02;6.78;;;;;;;15.04;92.77;101649.94;5026660;28;20124;-62
2023/06/08 03:29:19;;;;;;;18.50;7.60;;;;;;;15.08;92.50;101656.47;5033450;28;20038;-62
2023/06/08 03:31:47;;;;;;;16.27;7.18;;;;;;;15.11;92.45;101650.47;5033760;28;20100;-62
2023/06/08 03:34:20;;;;;;;22.25;7.57;;;;;;;15.03;92.58;101654.59;5025362;28;20100;-62
2023/06/08 03:36:48;;;;;;;21.52;7.07;;;;;;;14.84;94.33;101657.09;5023659;28;20049;-62
2023/06/08 03:39:20;;;;;;;19.65;7.57;;;;;;;14.90;93.47;101660.66;5050188;28;20088;-63
2023/06/08 03:41:48;;;;;;;19.23;7.43;;;;;;;14.90;94.07;101650.47;5017252;28;20057;-62
2023/06/08 03:44:16;;;;;;;23.25;8.05;;;;;;;14.89;93.72;101661.75;5017381;28;20064;-63
2023/06/08 03:46:46;;;;;;;20.75;7.57;;;;;;;14.93;93.58;101660.09;5046679;28;20072;-62
2023/06/08 03:49:14;;;;;;;18.13;7.47;;;;;;;15.02;93.25;101666.66;5034191;28;20049;-63
2023/06/08 03:51:42;;;;;;;20.17;8.13;;;;;;;15.01;92.62;101667.78;5033489;28;20068;-62
2023/06/08 03:54:09;;;;;;;16.73;7.10;;;;;;;14.76;93.74;101654.88;5032601;28;20045;-62
2023/06/08 03:56:37;;;;;;;14.98;6.88;;;;;;;14.87;94.03;101667.50;5031936;28;20057;-63
2023/06/08 03:59:06;;;;;;;19.15;7.50;;;;;;;15.00;92.74;101665.28;5033719;28;20073;-65
2023/06/08 04:01:35;;;;;;;19.00;7.13;;;;;;;15.02;92.55;101669.41;5032997;28;20053;-63
2023/06/08 04:04:04;;;;;;;19.60;7.95;;;;;;;14.91;92.95;101667.75;5031131;28;20107;-64
2023/06/08 04:06:33;;;;;;;19.13;7.85;;;;;;;14.97;93.18;101668.59;5031536;28;20520;-63
2023/06/08 04:09:06;;;;;;;17.92;7.57;;;;;;;14.99;93.16;101663.66;5033187;28;20088;-63
2023/06/08 04:11:36;;;;;;;17.65;7.13;;;;;;;15.03;91.46;101659.25;5038239;28;20112;-63
2023/06/08 04:14:03;;;;;;;18.23;8.27;;;;;;;14.81;92.41;101663.13;5032472;28;20449;-63
2023/06/08 04:16:33;;;;;;;23.02;8.00;;;;;;;14.58;95.10;101655.47;5010959;28;20128;-62
2023/06/08 04:19:01;;;;;;;21.75;8.30;;;;;;;14.70;94.20;101658.75;5021720;28;20080;-65
2023/06/08 04:21:29;;;;;;;19.17;7.45;;;;;;;14.84;93.22;101657.09;5030161;28;20100;-65
2023/06/08 04:24:06;;;;;;;22.33;8.40;;;;;;;14.81;92.61;101654.06;5053046;28;20073;-63
2023/06/08 04:26:36;;;;;;;17.45;7.32;;;;;;;14.74;93.69;101651.59;5001638;28;20048;-62
2023/06/08 04:29:06;;;;;;;18.75;7.57;;;;;;;14.74;92.94;101657.09;5030269;28;20383;-63
2023/06/08 04:31:38;;;;;;;20.55;8.65;;;;;;;14.64;93.93;101651.59;5029000;28;20483;-63
2023/06/08 04:34:06;;;;;;;16.08;7.30;;;;;;;14.80;94.26;101653.25;5016418;28;20046;-63
2023/06/08 04:36:35;;;;;;;15.35;8.20;;;;;;;14.93;92.54;101651.03;5002625;28;20049;-63
2023/06/08 04:39:03;;;;;;;17.17;7.88;;;;;;;15.04;91.10;101652.66;5033299;28;20038;-63
2023/06/08 04:41:31;;;;;;;17.95;7.28;;;;;;;14.87;92.27;101655.72;5041066;28;20041;-63
2023/06/08 04:44:02;;;;;;;21.75;7.88;;;;;;;14.69;92.91;101655.16;5014750;28;20252;-61
2023/06/08 04:46:33;;;;;;;21.55;7.97;;;;;;;14.62;93.69;101653.81;5013344;28;20045;-62
2023/06/08 04:49:01;;;;;;;14.57;7.00;;;;;;;14.62;94.34;101659.28;5017075;28;20046;-63
2023/06/08 04:51:29;;;;;;;16.42;7.20;;;;;;;14.63;94.11;101650.78;5026579;28;20049;-66
2023/06/08 04:54:04;;;;;;;24.40;8.73;;;;;;;14.74;93.07;101662.56;5032445;28;20140;-62
2023/06/08 04:56:33;;;;;;;17.85;7.75;;;;;;;14.63;93.90;101661.75;5032647;28;20083;-61
2023/06/08 04:59:01;;;;;;;22.25;7.68;;;;;;;14.74;93.03;101650.78;5032969;28;20080;-62
2023/06/08 05:01:29;;;;;;;16.45;7.53;;;;;;;14.85;93.17;101657.91;5023056;28;20054;-63
2023/06/08 05:03:56;;;;;;;20.67;8.52;;;;;;;14.91;92.09;101654.91;5031851;28;20049;-62
2023/06/08 05:06:24;;;;;;;18.95;9.00;;;;;;;14.84;92.48;101650.75;4302394;28;10000529;-64
2023/06/08 05:08:52;;;;;;;19.20;9.93;;;;;;;14.89;92.28;101654.34;5015673;28;20080;-68
2023/06/08 05:11:20;;;;;;;23.00;9.63;;;;;;;14.72;93.00;101650.22;5029721;28;20070;-61
2023/06/08 05:13:48;;;;;;;19.02;8.35;;;;;;;14.60;93.36;101656.00;5020980;28;20108;-67
2023/06/08 05:16:15;;;;;;;18.98;8.70;;;;;;;14.64;93.62;101648.88;5017534;28;20037;-67
2023/06/08 05:18:43;;;;;;;22.42;9.23;;;;;;;14.59;93.72;101654.34;5032626;28;20053;-61
2023/06/08 05:21:11;;;;;;;17.58;7.90;;;;;;;14.64;93.87;101646.94;5048668;28;20061;-65
2023/06/08 05:23:39;;;;;;;21.13;8.07;;;;;;;14.76;92.58;101656.81;5033734;28;20053;-64
2023/06/08 05:26:07;;;;;;;18.42;7.95;;;;;;;14.82;92.66;101653.81;5031471;28;20057;-65
2023/06/08 05:28:35;;;;;;;17.45;8.05;;;;;;;14.88;92.01;101651.84;5032381;28;20673;-63
2023/06/08 05:31:02;;;;;;;17.85;7.53;;;;;;;15.00;91.40;101651.56;5033443;28;20049;-62
2023/06/08 05:33:30;;;;;;;20.00;8.05;;;;;;;15.11;90.86;101644.97;5022868;28;20513;-64
2023/06/08 05:35:58;;;;;;;20.48;8.25;;;;;;;15.22;90.48;101645.75;5024705;28;20453;-65
2023/06/08 05:38:32;;;;;;;17.45;7.22;;;;;;;15.23;90.21;101645.47;5046845;28;20145;-65
2023/06/08 05:41:00;;;;;;;22.05;7.53;;;;;;;15.28;90.42;101639.97;5030914;28;20080;-62
2023/06/08 05:43:28;;;;;;;21.42;8.18;;;;;;;15.30;89.77;101646.00;5033521;28;20085;-66
2023/06/08 05:45:55;;;;;;;16.90;7.65;;;;;;;15.24;90.59;101649.03;5033603;28;20095;-65
2023/06/08 05:48:23;;;;;;;18.58;8.15;;;;;;;15.22;89.56;101652.06;5048669;28;20057;-65
2023/06/08 05:50:51;;;;;;;22.25;9.00;;;;;;;15.06;90.06;101642.25;5029726;28;20055;-62
2023/06/08 05:53:19;;;;;;;19.75;8.65;;;;;;;15.09;90.17;101636.19;5031550;28;20632;-63
2023/06/08 05:55:46;;;;;;;23.85;9.27;;;;;;;15.15;90.10;101640.53;5032409;28;20126;-64
2023/06/08 05:58:14;;;;;;;19.77;8.65;;;;;;;15.18;91.03;101644.69;5033422;28;20049;-65
2023/06/08 06:00:42;;;;;;;20.70;9.25;;;;;;;15.11;90.87;101639.47;5033171;28;20107;-64
2023/06/08 06:03:10;;;;;;;17.35;8.32;;;;;;;15.10;90.86;101637.81;5028424;28;20580;-64
2023/06/08 06:05:37;;;;;;;25.45;9.70;;;;;;;15.14;91.04;101638.91;5039790;28;20050;-66
2023/06/08 06:08:05;;;;;;;22.63;9.60;;;;;;;15.12;91.10;101635.63;5030985;28;20049;-63
2023/06/08 06:10:33;;;;;;;21.27;10.07;;;;;;;15.17;91.26;101638.34;5031038;28;20064;-64
2023/06/08 06:13:01;;;;;;;18.90;9.65;;;;;;;15.19;90.87;101641.63;5031183;28;20081;-65
2023/06/08 06:15:29;;;;;;;20.95;9.30;;;;;;;15.21;90.38;101644.94;5031002;28;20037;-65
2023/06/08 06:17:58;;;;;;;19.00;9.07;;;;;;;15.27;90.07;101649.31;5032936;28;20485;-65
2023/06/08 06:20:29;;;;;;;20.10;8.90;;;;;;;15.47;88.94;101647.59;5033014;28;20128;-62
2023/06/08 06:22:57;;;;;;;18.80;9.77;;;;;;;15.55;87.97;101652.50;5032639;28;20480;-68
2023/06/08 06:25:31;;;;;;;22.10;10.20;;;;;;;15.45;87.28;101649.81;5018182;28;20547;-65
2023/06/08 06:27:58;;;;;;;19.15;9.95;;;;;;;15.39;88.01;101634.44;5035904;28;20041;-62
2023/06/08 06:30:26;;;;;;;23.50;10.80;;;;;;;15.39;88.31;101643.50;5037639;28;20050;-64
2023/06/08 06:32:54;;;;;;;23.85;9.73;;;;;;;15.43;88.08;101630.84;5010770;28;20081;-64
2023/06/08 06:35:22;;;;;;;21.38;9.52;;;;;;;15.51;88.34;101638.53;5024773;28;20054;-65
2023/06/08 06:37:53;;;;;;;23.25;10.80;;;;;;;15.55;88.06;101645.06;5051626;28;20057;-64
2023/06/08 06:40:21;;;;;;;20.70;10.43;;;;;;;15.54;87.70;101648.13;5038244;28;20509;-63
2023/06/08 06:42:49;;;;;;;19.10;8.63;;;;;;;15.53;88.35;101649.22;5048122;28;20080;-63
2023/06/08 06:45:31;;;;;;;19.80;9.48;;;;;;;15.59;88.12;101653.59;5049554;28;20060;-64
2023/06/08 06:47:58;;;;;;;21.23;8.75;;;;;;;15.54;87.87;101659.13;5034766;28;20049;-64
2023/06/08 06:50:26;;;;;;;25.20;10.20;;;;;;;15.61;87.44;101658.78;5034419;28;20041;-65
2023/06/08 06:52:54;;;;;;;20.48;9.75;;;;;;;15.60;87.14;101657.16;5031029;28;20481;-65
2023/06/08 06:55:22;;;;;;;18.65;9.13;;;;;;;15.61;87.77;101654.13;5031120;28;20056;-66
2023/06/08 06:57:50;;;;;;;20.90;10.05;;;;;;;15.68;87.96;101654.66;5035020;28;20050;-63
2023/06/08 07:00:19;;;;;;;20.08;9.93;;;;;;;15.74;87.56;101659.03;5033387;28;20449;-63
2023/06/08 07:02:47;;;;;;;24.55;13.10;;;;;;;15.83;88.35;101659.28;5034175;28;20092;-63
2023/06/08 07:05:15;;;;;;;21.80;10.15;;;;;;;15.95;87.73;101650.69;5025683;28;20046;-63
2023/06/08 07:07:42;;;;;;;22.13;10.68;;;;;;;15.99;87.69;101654.50;5024268;28;20041;-63
2023/06/08 07:10:10;;;;;;;20.42;11.27;;;;;;;16.04;87.14;101650.91;5034256;28;20103;-64
2023/06/08 07:12:38;;;;;;;23.00;11.27;;;;;;;16.02;87.28;101647.59;5033139;28;20477;-65
2023/06/08 07:15:06;;;;;;;20.38;10.55;;;;;;;15.94;87.55;101640.78;5034897;28;20074;-63
2023/06/08 07:17:34;;;;;;;23.00;10.20;;;;;;;15.96;88.37;101646.81;5033371;28;20045;-66
2023/06/08 07:20:03;;;;;;;21.02;10.90;;;;;;;15.99;88.54;101651.75;4681636;28;10000302;-65
2023/06/08 07:22:31;;;;;;;22.65;10.10;;;;;;;16.01;88.48;101654.22;5027190;28;20506;-66
2023/06/08 07:25:19;;;;;;;21.10;10.68;;;;;;;16.08;88.15;101663.78;5019478;28;20045;-67
2023/06/08 07:28:08;;;;;;;23.40;10.73;;;;;;;16.20;88.69;101660.69;5032724;28;20485;-63
2023/06/08 07:30:36;;;;;;;20.73;11.13;;;;;;;16.28;87.72;101654.56;5033049;28;20465;-64
2023/06/08 07:33:04;;;;;;;19.02;11.32;;;;;;;16.32;87.57;101646.59;5033347;28;20405;-65
2023/06/08 07:35:35;;;;;;;23.33;12.57;;;;;;;16.34;87.83;101652.63;5034070;28;20049;-63
2023/06/08 07:38:03;;;;;;;14.30;7.65;;;;;;;16.43;89.17;101655.56;5032956;28;20073;-63
2023/06/08 07:40:31;;;;;;;21.33;9.98;;;;;;;16.57;87.43;101657.41;5032292;28;20077;-64
2023/06/08 07:42:58;;;;;;;23.88;12.07;;;;;;;16.59;86.73;101662.59;5032650;28;20445;-64
2023/06/08 07:45:27;;;;;;;20.10;11.80;;;;;;;16.56;86.85;101658.50;5033913;28;20573;-64
2023/06/08 07:47:55;;;;;;;22.63;13.25;;;;;;;16.57;87.44;101665.66;5033497;28;20051;-65
2023/06/08 07:50:23;;;;;;;24.13;12.82;;;;;;;16.59;87.61;101663.41;5033668;28;20072;-64
2023/06/08 07:52:53;;;;;;;17.70;11.15;;;;;;;16.65;87.65;101649.63;5033606;28;20053;-64
2023/06/08 07:55:21;;;;;;;23.55;11.40;;;;;;;16.70;88.94;101650.41;5033591;28;20079;-64
2023/06/08 07:57:50;;;;;;;17.52;10.23;;;;;;;16.79;88.43;101642.38;5049263;28;20057;-63
2023/06/08 08:00:22;;;;;;;28.10;12.57;;;;;;;16.86;87.75;101642.88;5033211;28;20096;-63
2023/06/08 08:02:56;;;;;;;23.83;10.55;;;;;;;16.96;87.48;101644.69;5033022;28;20149;-63
2023/06/08 08:05:24;;;;;;;21.98;12.85;;;;;;;16.90;86.78;101635.66;5027159;28;20053;-64
2023/06/08 08:07:52;;;;;;;21.35;12.20;;;;;;;16.81;87.08;101634.63;5031228;28;20056;-64
2023/06/08 08:10:20;;;;;;;21.95;11.52;;;;;;;16.84;87.38;101636.81;5031449;28;20037;-65
2023/06/08 08:12:53;;;;;;;21.98;10.70;;;;;;;16.85;87.28;101640.41;5033798;28;20064;-64
2023/06/08 08:15:22;;;;;;;21.35;12.48;;;;;;;16.84;86.79;101645.09;5032096;28;20117;-63
2023/06/08 08:17:50;;;;;;;21.80;11.23;;;;;;;16.90;87.93;101641.16;5034185;28;20053;-63
2023/06/08 08:20:20;;;;;;;20.52;12.27;;;;;;;17.03;86.96;101646.00;5033019;28;20064;-62
2023/06/08 08:22:48;;;;;;;21.17;10.80;;;;;;;17.07;87.64;101648.97;5033269;28;20084;-62
2023/06/08 08:25:16;;;;;;;18.50;11.70;;;;;;;17.11;87.63;101646.47;5015016;28;20053;-65
2023/06/08 08:27:47;;;;;;;23.55;11.32;;;;;;;17.17;87.20;101645.28;5034384;28;20071;-64
2023/06/08 08:30:14;;;;;;;18.25;10.63;;;;;;;17.25;86.92;101645.47;5033827;28;20045;-62
2023/06/08 08:32:42;;;;;;;23.63;11.43;;;;;;;17.36;86.20;101643.41;5033071;28;20053;-62
2023/06/08 08:35:10;;;;;;;19.27;9.30;;;;;;;17.48;86.03;101656.75;5034284;28;20497;-63
2023/06/08 08:37:38;;;;;;;20.13;10.40;;;;;;;17.54;85.43;101646.50;5034527;28;20486;-63
2023/06/08 08:40:06;;;;;;;17.83;9.52;;;;;;;17.62;85.63;101646.66;5023593;28;20041;-62
2023/06/08 08:42:37;;;;;;;20.55;10.45;;;;;;;17.68;85.53;101639.16;5030548;28;20479;-63
2023/06/08 08:45:07;;;;;;;19.83;8.80;;;;;;;17.79;84.96;101648.09;5033678;28;20056;-61
2023/06/08 08:47:37;;;;;;;23.55;11.00;;;;;;;17.81;84.00;101649.47;5033857;28;20076;-62
2023/06/08 08:50:09;;;;;;;19.98;9.10;;;;;;;17.89;83.89;101642.47;5036102;28;20053;-63
2023/06/08 08:52:38;;;;;;;16.77;8.68;;;;;;;17.93;83.39;101643.53;5053463;28;20060;-63
2023/06/08 08:55:07;;;;;;;19.63;10.77;;;;;;;17.96;82.85;101644.88;5009365;28;20049;-61
2023/06/08 08:57:53;;;;;;;;;;;;;;;17.92;82.81;101632.78;5037023;28;20061;-62
2023/06/08 09:00:21;;;;;;;20.33;10.65;;;;;;;17.87;82.91;101642.78;5041969;28;19921;-64
2023/06/08 09:02:50;;;;;;;18.13;8.65;;;;;;;17.87;82.55;101634.53;5036733;28;20072;-63
2023/06/08 09:05:18;;;;;;;17.23;9.70;;;;;;;17.93;82.48;101634.44;5036179;28;20049;-63
2023/06/08 09:07:45;;;;;;;18.63;9.88;;;;;;;18.00;81.29;101629.38;5029982;28;20066;-63
2023/06/08 09:10:14;;;;;;;16.30;8.73;;;;;;;18.08;81.19;101625.94;5017673;28;20120;-61
2023/06/08 09:12:43;;;;;;;19.58;9.93;;;;;;;18.11;81.06;101628.09;5016287;28;20052;-61
2023/06/08 09:15:11;;;;;;;21.25;10.27;;;;;;;18.11;80.52;101636.34;5017658;28;20398;-65
2023/06/08 09:17:40;;;;;;;18.77;9.80;;;;;;;18.13;80.22;101622.28;5018785;28;20050;-62
2023/06/08 09:20:10;;;;;;;20.00;9.75;;;;;;;18.10;79.98;101619.00;5017476;28;20046;-62
2023/06/08 09:22:41;;;;;;;18.23;9.13;;;;;;;18.17;80.10;101623.31;5000992;28;20108;-64
2023/06/08 09:25:09;;;;;;;19.27;9.32;;;;;;;18.19;79.65;101627.41;5026486;28;20452;-62
2023/06/08 09:27:39;;;;;;;21.92;10.05;;;;;;;18.16;78.93;101633.53;5035266;28;20406;-65
2023/06/08 09:30:23;;;;;;;19.75;9.65;;;;;;;18.09;77.71;101624.81;5032792;28;20104;-64
2023/06/08 09:32:51;;;;;;;18.42;9.43;;;;;;;18.06;77.66;101628.16;5020129;28;20065;-66
2023/06/08 09:35:23;;;;;;;27.13;10.23;;;;;;;18.06;78.50;101619.88;5015383;28;20056;-68
2023/06/08 09:37:52;;;;;;;20.88;10.68;;;;;;;18.16;76.73;101621.66;5035485;28;20096;-63
2023/06/08 09:40:24;;;;;;;20.88;10.50;;;;;;;18.03;76.83;101626.00;5047360;28;20136;-70
2023/06/08 09:42:53;;;;;;;20.23;10.15;;;;;;;17.93;76.41;101620.66;5034694;28;20061;-65
2023/06/08 09:45:22;;;;;;;18.65;9.48;;;;;;;17.89;77.21;101628.69;5052050;28;20404;-62
2023/06/08 09:47:50;;;;;;;21.35;10.13;;;;;;;17.94;75.83;101641.59;5036413;28;20385;-66
2023/06/08 09:50:22;;;;;;;19.67;10.32;;;;;;;17.91;75.78;101631.16;5024829;28;20051;-64
2023/06/08 09:52:50;;;;;;;19.92;9.82;;;;;;;17.88;75.87;101638.09;5033382;28;20468;-64
2023/06/08 09:55:19;;;;;;;21.70;10.23;;;;;;;17.76;76.05;101635.72;5035461;28;20041;-66
2023/06/08 09:57:47;;;;;;;16.67;9.27;;;;;;;17.66;77.33;101627.63;5017802;28;20072;-63
2023/06/08 10:00:18;;;;;;;16.20;8.75;;;;;;;17.70;77.19;101625.88;5028093;28;20136;-63
2023/06/08 10:03:06;;;;;;;19.70;9.40;;;;;;;17.73;77.05;101624.50;5014100;28;20045;-62
2023/06/08 10:05:43;;;;;;;21.73;8.60;;;;;;;17.83;77.32;101618.88;5018618;28;20053;-63
2023/06/08 10:08:13;;;;;;;19.80;8.50;;;;;;;17.91;77.67;101609.09;5035893;28;20072;-62
2023/06/08 10:10:41;;;;;;;17.15;8.55;;;;;;;18.00;77.59;101618.34;5034380;28;20050;-64
2023/06/08 10:13:10;;;;;;;17.77;9.38;;;;;;;18.00;77.32;101607.31;4335014;28;10000487;-63
2023/06/08 10:15:39;;;;;;;19.30;9.43;;;;;;;18.01;76.71;101600.66;5011952;28;20061;-66
2023/06/08 10:18:07;;;;;;;16.60;9.02;;;;;;;18.12;77.10;101598.59;5031234;28;20595;-67
2023/06/08 10:20:35;;;;;;;21.15;8.98;;;;;;;18.21;76.64;101599.53;5032138;28;20057;-67
2023/06/08 10:23:03;;;;;;;14.90;8.60;;;;;;;18.29;76.18;101594.16;5017376;28;20046;-67
2023/06/08 10:25:31;;;;;;;18.60;7.75;;;;;;;18.41;76.41;101582.63;5012356;28;20070;-65
2023/06/08 10:28:07;;;;;;;17.05;7.38;;;;;;;18.64;75.50;101597.44;5012806;28;20057;-65
2023/06/08 10:30:41;;;;;;;13.83;6.70;;;;;;;18.88;73.30;101588.16;5030538;28;20057;-63
2023/06/08 10:33:19;;;;;;;17.73;8.15;;;;;;;18.97;71.62;101583.56;5018517;28;20413;-65
2023/06/08 10:36:08;;;;;;;19.08;7.07;;;;;;;19.00;71.68;101588.50;5028126;28;20057;-66
2023/06/08 10:38:38;;;;;;;14.70;7.82;;;;;;;19.06;69.68;101591.97;5010448;28;20058;-65
2023/06/08 10:41:05;;;;;;;19.80;8.00;;;;;;;19.07;70.61;101590.84;5037053;28;20068;-62
2023/06/08 10:43:33;;;;;;;18.08;7.70;;;;;;;19.08;68.93;101582.25;5045338;28;20103;-65
2023/06/08 10:46:04;;;;;;;17.85;8.50;;;;;;;19.06;67.36;101594.72;5044497;28;20084;-64
2023/06/08 10:48:38;;;;;;;18.00;8.23;;;;;;;18.87;67.80;101584.59;5035634;28;20079;-65
2023/06/08 10:51:10;;;;;;;17.92;7.75;;;;;;;18.83;69.00;101572.53;5046321;28;20083;-66
2023/06/08 10:53:56;;;;;;;15.90;8.23;;;;;;;18.90;69.49;101574.88;5042515;28;20060;-64
2023/06/08 10:56:26;;;;;;;17.70;9.30;;;;;;;18.94;68.85;101570.38;4981675;28;1108258;-64
2023/06/08 10:58:55;;;;;;;19.83;8.55;;;;;;;18.97;69.77;101567.00;5034246;28;20543;-61
2023/06/08 11:01:31;;;;;;;19.77;8.00;;;;;;;19.03;70.10;101564.97;5032043;28;20060;-64
2023/06/08 11:04:00;;;;;;;;;;;;;;;19.10;71.57;101559.84;5016333;28;20056;-65
2023/06/08 11:06:35;;;;;;;18.27;7.25;;;;;;;19.29;70.15;101559.72;5047483;28;19928;-65
2023/06/08 11:09:08;;;;;;;;;;;;;;;19.43;70.23;101554.16;5033825;28;20084;-65
2023/06/08 11:11:36;;;;;;;16.33;7.20;;;;;;;19.48;69.56;101546.59;5061780;28;19926;-66
2023/06/08 11:14:06;;;;;;;16.67;6.95;;;;;;;19.64;68.67;101549.81;5033468;28;20502;-65
2023/06/08 11:16:35;;;;;;;14.75;6.72;;;;;;;19.71;67.74;101544.72;5037185;28;20058;-66
2023/06/08 11:19:17;;;;;;;15.20;6.65;;;;;;;19.81;67.82;101548.38;5041558;28;20044;-66
2023/06/08 11:21:46;;;;;;;17.23;8.15;;;;;;;19.87;68.79;101536.88;5021175;28;20042;-65
2023/06/08 11:24:15;;;;;;;19.48;8.50;;;;;;;19.92;68.91;101544.25;5035098;28;20157;-65
2023/06/08 11:26:43;;;;;;;15.90;8.07;;;;;;;20.11;68.34;101535.75;5034571;28;20045;-63
2023/06/08 11:29:29;;;;;;;17.40;8.40;;;;;;;20.27;67.63;101523.13;5038812;28;20041;-65